sensor_id;sensor_type;location;lat;lon;timestamp;P1;durP1;ratioP1;P2;durP2;ratioP2
18881;SDS011;9573;50.948;11.600;2023-02-04T00:00:10;20.10;;;3.73;;
18881;SDS011;9573;50.948;11.600;2023-02-04T00:02:39;17.87;;;2.90;;
18881;SDS011;9573;50.948;11.600;2023-02-04T00:05:07;25.10;;;3.13;;
18881;SDS011;9573;50.948;11.600;2023-02-04T00:07:36;20.87;;;2.90;;
18881;SDS011;9573;50.948;11.600;2023-02-04T00:10:04;20.33;;;3.17;;
18881;SDS011;9573;50.948;11.600;2023-02-04T00:12:33;20.87;;;3.23;;
18881;SDS011;9573;50.948;11.600;2023-02-04T00:15:00;16.83;;;3.17;;
18881;SDS011;9573;50.948;11.600;2023-02-04T00:17:28;17.93;;;2.43;;
18881;SDS011;9573;50.948;11.600;2023-02-04T00:19:55;22.17;;;3.20;;
18881;SDS011;9573;50.948;11.600;2023-02-04T00:22:22;17.37;;;2.50;;
18881;SDS011;9573;50.948;11.600;2023-02-04T00:24:51;20.83;;;2.80;;
18881;SDS011;9573;50.948;11.600;2023-02-04T00:27:18;21.13;;;3.20;;
18881;SDS011;9573;50.948;11.600;2023-02-04T00:29:46;22.53;;;3.00;;
18881;SDS011;9573;50.948;11.600;2023-02-04T00:32:13;20.80;;;3.20;;
18881;SDS011;9573;50.948;11.600;2023-02-04T00:34:40;23.23;;;3.20;;
18881;SDS011;9573;50.948;11.600;2023-02-04T00:37:07;24.37;;;2.80;;
18881;SDS011;9573;50.948;11.600;2023-02-04T00:39:35;23.50;;;3.37;;
18881;SDS011;9573;50.948;11.600;2023-02-04T00:42:03;23.97;;;3.27;;
18881;SDS011;9573;50.948;11.600;2023-02-04T00:44:30;21.03;;;2.90;;
18881;SDS011;9573;50.948;11.600;2023-02-04T00:46:58;20.10;;;3.77;;
18881;SDS011;9573;50.948;11.600;2023-02-04T00:49:25;23.77;;;3.07;;
18881;SDS011;9573;50.948;11.600;2023-02-04T00:51:52;17.90;;;2.90;;
18881;SDS011;9573;50.948;11.600;2023-02-04T00:54:19;21.47;;;2.97;;
18881;SDS011;9573;50.948;11.600;2023-02-04T00:56:46;27.13;;;3.20;;
18881;SDS011;9573;50.948;11.600;2023-02-04T00:59:15;16.87;;;2.33;;
18881;SDS011;9573;50.948;11.600;2023-02-04T01:01:42;25.40;;;2.97;;
18881;SDS011;9573;50.948;11.600;2023-02-04T01:04:09;24.00;;;3.13;;
18881;SDS011;9573;50.948;11.600;2023-02-04T01:06:37;20.70;;;3.07;;
18881;SDS011;9573;50.948;11.600;2023-02-04T01:09:04;19.07;;;2.77;;
18881;SDS011;9573;50.948;11.600;2023-02-04T01:11:31;22.23;;;2.40;;
18881;SDS011;9573;50.948;11.600;2023-02-04T01:13:58;22.73;;;2.93;;
18881;SDS011;9573;50.948;11.600;2023-02-04T01:16:27;18.07;;;2.83;;
18881;SDS011;9573;50.948;11.600;2023-02-04T01:18:54;21.60;;;3.20;;
18881;SDS011;9573;50.948;11.600;2023-02-04T01:21:21;7.20;;;1.57;;
18881;SDS011;9573;50.948;11.600;2023-02-04T01:23:48;3.97;;;0.90;;
18881;SDS011;9573;50.948;11.600;2023-02-04T01:26:16;2.77;;;0.73;;
18881;SDS011;9573;50.948;11.600;2023-02-04T01:28:43;2.80;;;0.80;;
18881;SDS011;9573;50.948;11.600;2023-02-04T01:31:10;1.70;;;0.90;;
18881;SDS011;9573;50.948;11.600;2023-02-04T01:33:39;1.10;;;1.00;;
18881;SDS011;9573;50.948;11.600;2023-02-04T01:36:06;1.23;;;1.10;;
18881;SDS011;9573;50.948;11.600;2023-02-04T01:38:33;3.67;;;1.30;;
18881;SDS011;9573;50.948;11.600;2023-02-04T01:41:00;2.20;;;1.20;;
18881;SDS011;9573;50.948;11.600;2023-02-04T01:43:28;2.77;;;1.17;;
18881;SDS011;9573;50.948;11.600;2023-02-04T01:45:56;1.77;;;1.27;;
18881;SDS011;9573;50.948;11.600;2023-02-04T01:48:25;3.40;;;1.33;;
18881;SDS011;9573;50.948;11.600;2023-02-04T01:51:02;1.93;;;1.27;;
18881;SDS011;9573;50.948;11.600;2023-02-04T01:53:32;3.40;;;1.60;;
18881;SDS011;9573;50.948;11.600;2023-02-04T01:56:00;3.77;;;1.50;;
18881;SDS011;9573;50.948;11.600;2023-02-04T01:58:36;2.57;;;1.50;;
18881;SDS011;9573;50.948;11.600;2023-02-04T02:01:05;3.30;;;1.53;;
18881;SDS011;9573;50.948;11.600;2023-02-04T02:03:37;2.37;;;1.67;;
18881;SDS011;9573;50.948;11.600;2023-02-04T02:06:05;5.90;;;1.50;;
18881;SDS011;9573;50.948;11.600;2023-02-04T02:08:34;4.83;;;1.70;;
18881;SDS011;9573;50.948;11.600;2023-02-04T02:11:02;3.37;;;1.33;;
18881;SDS011;9573;50.948;11.600;2023-02-04T02:13:29;4.80;;;1.90;;
18881;SDS011;9573;50.948;11.600;2023-02-04T02:15:57;2.70;;;1.70;;
18881;SDS011;9573;50.948;11.600;2023-02-04T02:18:24;2.30;;;1.60;;
18881;SDS011;9573;50.948;11.600;2023-02-04T02:20:51;3.37;;;1.60;;
18881;SDS011;9573;50.948;11.600;2023-02-04T02:23:20;5.57;;;1.90;;
18881;SDS011;9573;50.948;11.600;2023-02-04T02:26:08;4.87;;;1.80;;
18881;SDS011;9573;50.948;11.600;2023-02-04T02:28:35;9.27;;;1.90;;
18881;SDS011;9573;50.948;11.600;2023-02-04T02:31:02;6.80;;;2.17;;
18881;SDS011;9573;50.948;11.600;2023-02-04T02:33:29;3.33;;;2.10;;
18881;SDS011;9573;50.948;11.600;2023-02-04T02:35:56;3.77;;;2.07;;
18881;SDS011;9573;50.948;11.600;2023-02-04T02:38:23;5.27;;;2.27;;
18881;SDS011;9573;50.948;11.600;2023-02-04T02:40:52;10.53;;;2.67;;
18881;SDS011;9573;50.948;11.600;2023-02-04T02:43:20;9.67;;;2.60;;
18881;SDS011;9573;50.948;11.600;2023-02-04T02:45:49;6.43;;;2.60;;
18881;SDS011;9573;50.948;11.600;2023-02-04T02:48:18;6.10;;;2.50;;
18881;SDS011;9573;50.948;11.600;2023-02-04T02:50:45;4.20;;;2.37;;
18881;SDS011;9573;50.948;11.600;2023-02-04T02:53:14;5.73;;;2.27;;
18881;SDS011;9573;50.948;11.600;2023-02-04T02:55:44;10.07;;;2.87;;
18881;SDS011;9573;50.948;11.600;2023-02-04T02:58:14;6.43;;;2.87;;
18881;SDS011;9573;50.948;11.600;2023-02-04T03:00:50;7.97;;;2.77;;
18881;SDS011;9573;50.948;11.600;2023-02-04T03:03:18;7.07;;;2.97;;
18881;SDS011;9573;50.948;11.600;2023-02-04T03:05:50;4.87;;;2.80;;
18881;SDS011;9573;50.948;11.600;2023-02-04T03:08:21;7.43;;;2.73;;
18881;SDS011;9573;50.948;11.600;2023-02-04T03:10:48;8.50;;;2.90;;
18881;SDS011;9573;50.948;11.600;2023-02-04T03:13:17;6.33;;;2.80;;
18881;SDS011;9573;50.948;11.600;2023-02-04T03:15:46;4.77;;;2.60;;
18881;SDS011;9573;50.948;11.600;2023-02-04T03:18:14;5.33;;;2.80;;
18881;SDS011;9573;50.948;11.600;2023-02-04T03:20:43;6.83;;;2.77;;
18881;SDS011;9573;50.948;11.600;2023-02-04T03:23:11;8.77;;;2.80;;
18881;SDS011;9573;50.948;11.600;2023-02-04T03:25:38;6.07;;;2.80;;
18881;SDS011;9573;50.948;11.600;2023-02-04T03:28:06;6.57;;;2.80;;
18881;SDS011;9573;50.948;11.600;2023-02-04T03:30:36;5.93;;;2.77;;
18881;SDS011;9573;50.948;11.600;2023-02-04T03:33:03;7.77;;;3.17;;
18881;SDS011;9573;50.948;11.600;2023-02-04T03:35:30;7.20;;;2.87;;
18881;SDS011;9573;50.948;11.600;2023-02-04T03:37:57;7.03;;;3.00;;
18881;SDS011;9573;50.948;11.600;2023-02-04T03:40:24;7.77;;;3.03;;
18881;SDS011;9573;50.948;11.600;2023-02-04T03:42:51;7.33;;;3.00;;
18881;SDS011;9573;50.948;11.600;2023-02-04T03:45:18;5.97;;;2.83;;
18881;SDS011;9573;50.948;11.600;2023-02-04T03:47:47;4.93;;;2.73;;
18881;SDS011;9573;50.948;11.600;2023-02-04T03:50:14;6.83;;;3.07;;
18881;SDS011;9573;50.948;11.600;2023-02-04T03:52:42;8.60;;;2.90;;
18881;SDS011;9573;50.948;11.600;2023-02-04T03:55:09;5.20;;;2.67;;
18881;SDS011;9573;50.948;11.600;2023-02-04T03:57:36;6.83;;;2.97;;
18881;SDS011;9573;50.948;11.600;2023-02-04T04:00:04;8.27;;;2.90;;
18881;SDS011;9573;50.948;11.600;2023-02-04T04:02:32;6.17;;;2.97;;
18881;SDS011;9573;50.948;11.600;2023-02-04T04:05:00;5.90;;;2.80;;
18881;SDS011;9573;50.948;11.600;2023-02-04T04:07:27;8.93;;;3.30;;
18881;SDS011;9573;50.948;11.600;2023-02-04T04:09:55;6.70;;;2.67;;
18881;SDS011;9573;50.948;11.600;2023-02-04T04:12:22;6.23;;;2.93;;
18881;SDS011;9573;50.948;11.600;2023-02-04T04:14:49;6.03;;;3.17;;
18881;SDS011;9573;50.948;11.600;2023-02-04T04:17:16;7.03;;;3.20;;
18881;SDS011;9573;50.948;11.600;2023-02-04T04:19:43;10.20;;;2.90;;
18881;SDS011;9573;50.948;11.600;2023-02-04T04:22:11;5.00;;;2.70;;
18881;SDS011;9573;50.948;11.600;2023-02-04T04:24:38;4.97;;;2.60;;
18881;SDS011;9573;50.948;11.600;2023-02-04T04:27:06;8.90;;;2.80;;
18881;SDS011;9573;50.948;11.600;2023-02-04T04:29:34;8.00;;;3.00;;
18881;SDS011;9573;50.948;11.600;2023-02-04T04:32:01;6.80;;;2.90;;
18881;SDS011;9573;50.948;11.600;2023-02-04T04:34:29;10.23;;;3.27;;
18881;SDS011;9573;50.948;11.600;2023-02-04T04:36:56;10.77;;;3.20;;
18881;SDS011;9573;50.948;11.600;2023-02-04T04:39:25;8.30;;;2.77;;
18881;SDS011;9573;50.948;11.600;2023-02-04T04:41:52;10.37;;;2.90;;
18881;SDS011;9573;50.948;11.600;2023-02-04T04:44:19;9.83;;;3.20;;
18881;SDS011;9573;50.948;11.600;2023-02-04T04:46:46;6.50;;;2.90;;
18881;SDS011;9573;50.948;11.600;2023-02-04T04:49:13;7.30;;;2.97;;
18881;SDS011;9573;50.948;11.600;2023-02-04T04:51:41;7.33;;;2.87;;
18881;SDS011;9573;50.948;11.600;2023-02-04T04:54:08;8.27;;;2.80;;
18881;SDS011;9573;50.948;11.600;2023-02-04T04:56:36;9.67;;;3.00;;
18881;SDS011;9573;50.948;11.600;2023-02-04T04:59:03;11.33;;;3.27;;
18881;SDS011;9573;50.948;11.600;2023-02-04T05:01:31;9.07;;;3.07;;
18881;SDS011;9573;50.948;11.600;2023-02-04T05:03:58;8.23;;;3.17;;
18881;SDS011;9573;50.948;11.600;2023-02-04T05:06:25;7.20;;;2.97;;
18881;SDS011;9573;50.948;11.600;2023-02-04T05:08:52;7.97;;;3.20;;
18881;SDS011;9573;50.948;11.600;2023-02-04T05:11:20;9.43;;;3.23;;
18881;SDS011;9573;50.948;11.600;2023-02-04T05:13:48;5.83;;;2.93;;
18881;SDS011;9573;50.948;11.600;2023-02-04T05:16:15;7.40;;;3.30;;
18881;SDS011;9573;50.948;11.600;2023-02-04T05:18:43;8.50;;;2.93;;
18881;SDS011;9573;50.948;11.600;2023-02-04T05:21:10;6.50;;;3.10;;
18881;SDS011;9573;50.948;11.600;2023-02-04T05:23:37;5.30;;;3.03;;
18881;SDS011;9573;50.948;11.600;2023-02-04T05:26:04;9.27;;;3.33;;
18881;SDS011;9573;50.948;11.600;2023-02-04T05:28:31;9.13;;;3.20;;
18881;SDS011;9573;50.948;11.600;2023-02-04T05:30:59;6.60;;;2.90;;
18881;SDS011;9573;50.948;11.600;2023-02-04T05:33:27;7.17;;;3.10;;
18881;SDS011;9573;50.948;11.600;2023-02-04T05:35:54;8.93;;;2.90;;
18881;SDS011;9573;50.948;11.600;2023-02-04T05:38:21;6.80;;;3.10;;
18881;SDS011;9573;50.948;11.600;2023-02-04T05:40:48;10.10;;;3.30;;
18881;SDS011;9573;50.948;11.600;2023-02-04T05:43:15;8.43;;;3.30;;
18881;SDS011;9573;50.948;11.600;2023-02-04T05:45:42;8.43;;;3.20;;
18881;SDS011;9573;50.948;11.600;2023-02-04T05:48:10;9.97;;;3.30;;
18881;SDS011;9573;50.948;11.600;2023-02-04T05:50:37;10.50;;;3.00;;
18881;SDS011;9573;50.948;11.600;2023-02-04T05:53:04;8.57;;;3.47;;
18881;SDS011;9573;50.948;11.600;2023-02-04T05:55:32;9.40;;;2.90;;
18881;SDS011;9573;50.948;11.600;2023-02-04T05:57:59;10.80;;;3.10;;
18881;SDS011;9573;50.948;11.600;2023-02-04T06:00:26;7.60;;;3.07;;
18881;SDS011;9573;50.948;11.600;2023-02-04T06:02:53;9.83;;;3.20;;
18881;SDS011;9573;50.948;11.600;2023-02-04T06:05:21;7.73;;;2.90;;
18881;SDS011;9573;50.948;11.600;2023-02-04T06:07:48;6.73;;;2.90;;
18881;SDS011;9573;50.948;11.600;2023-02-04T06:10:16;6.43;;;2.97;;
18881;SDS011;9573;50.948;11.600;2023-02-04T06:12:45;6.33;;;2.93;;
18881;SDS011;9573;50.948;11.600;2023-02-04T06:15:12;5.30;;;2.77;;
18881;SDS011;9573;50.948;11.600;2023-02-04T06:17:39;7.30;;;2.60;;
18881;SDS011;9573;50.948;11.600;2023-02-04T06:20:07;8.27;;;2.70;;
18881;SDS011;9573;50.948;11.600;2023-02-04T06:22:39;6.70;;;2.73;;
18881;SDS011;9573;50.948;11.600;2023-02-04T06:25:07;6.30;;;2.90;;
18881;SDS011;9573;50.948;11.600;2023-02-04T06:27:34;6.93;;;3.00;;
18881;SDS011;9573;50.948;11.600;2023-02-04T06:30:01;8.77;;;3.10;;
18881;SDS011;9573;50.948;11.600;2023-02-04T06:32:28;8.70;;;3.20;;
18881;SDS011;9573;50.948;11.600;2023-02-04T06:34:55;10.30;;;3.23;;
18881;SDS011;9573;50.948;11.600;2023-02-04T06:37:22;11.17;;;3.23;;
18881;SDS011;9573;50.948;11.600;2023-02-04T06:39:51;9.10;;;3.77;;
18881;SDS011;9573;50.948;11.600;2023-02-04T06:42:18;9.27;;;3.43;;
18881;SDS011;9573;50.948;11.600;2023-02-04T06:44:45;11.43;;;3.90;;
18881;SDS011;9573;50.948;11.600;2023-02-04T06:47:12;10.90;;;3.60;;
18881;SDS011;9573;50.948;11.600;2023-02-04T06:49:39;11.53;;;3.40;;
18881;SDS011;9573;50.948;11.600;2023-02-04T06:52:06;7.83;;;3.20;;
18881;SDS011;9573;50.948;11.600;2023-02-04T06:54:34;7.30;;;3.33;;
18881;SDS011;9573;50.948;11.600;2023-02-04T06:57:03;11.90;;;3.93;;
18881;SDS011;9573;50.948;11.600;2023-02-04T06:59:31;7.53;;;3.70;;
18881;SDS011;9573;50.948;11.600;2023-02-04T07:01:59;9.70;;;3.60;;
18881;SDS011;9573;50.948;11.600;2023-02-04T07:04:26;9.47;;;3.30;;
18881;SDS011;9573;50.948;11.600;2023-02-04T07:06:53;10.40;;;3.70;;
18881;SDS011;9573;50.948;11.600;2023-02-04T07:09:20;8.60;;;3.33;;
18881;SDS011;9573;50.948;11.600;2023-02-04T07:11:47;7.40;;;3.30;;
18881;SDS011;9573;50.948;11.600;2023-02-04T07:14:16;8.80;;;3.47;;
18881;SDS011;9573;50.948;11.600;2023-02-04T07:16:43;12.33;;;3.87;;
18881;SDS011;9573;50.948;11.600;2023-02-04T07:19:10;9.40;;;3.80;;
18881;SDS011;9573;50.948;11.600;2023-02-04T07:21:38;7.50;;;3.70;;
18881;SDS011;9573;50.948;11.600;2023-02-04T07:24:05;9.27;;;3.60;;
18881;SDS011;9573;50.948;11.600;2023-02-04T07:26:32;7.20;;;3.50;;
18881;SDS011;9573;50.948;11.600;2023-02-04T07:28:59;8.07;;;3.40;;
18881;SDS011;9573;50.948;11.600;2023-02-04T07:31:28;9.00;;;3.40;;
18881;SDS011;9573;50.948;11.600;2023-02-04T07:33:55;7.90;;;3.10;;
18881;SDS011;9573;50.948;11.600;2023-02-04T07:36:22;6.57;;;3.30;;
18881;SDS011;9573;50.948;11.600;2023-02-04T07:38:50;7.13;;;3.00;;
18881;SDS011;9573;50.948;11.600;2023-02-04T07:41:17;7.23;;;3.13;;
18881;SDS011;9573;50.948;11.600;2023-02-04T07:43:45;9.77;;;3.73;;
18881;SDS011;9573;50.948;11.600;2023-02-04T07:46:12;8.73;;;3.33;;
18881;SDS011;9573;50.948;11.600;2023-02-04T07:48:40;5.60;;;2.87;;
18881;SDS011;9573;50.948;11.600;2023-02-04T07:51:07;7.60;;;3.23;;
18881;SDS011;9573;50.948;11.600;2023-02-04T07:53:35;15.20;;;3.90;;
18881;SDS011;9573;50.948;11.600;2023-02-04T07:56:02;10.97;;;3.33;;
18881;SDS011;9573;50.948;11.600;2023-02-04T07:58:30;8.70;;;3.47;;
18881;SDS011;9573;50.948;11.600;2023-02-04T08:00:57;9.80;;;3.87;;
18881;SDS011;9573;50.948;11.600;2023-02-04T08:03:25;10.83;;;4.03;;
18881;SDS011;9573;50.948;11.600;2023-02-04T08:05:53;8.80;;;3.67;;
18881;SDS011;9573;50.948;11.600;2023-02-04T08:08:21;12.47;;;4.23;;
18881;SDS011;9573;50.948;11.600;2023-02-04T08:10:48;10.70;;;3.30;;
18881;SDS011;9573;50.948;11.600;2023-02-04T08:13:15;9.20;;;3.60;;
18881;SDS011;9573;50.948;11.600;2023-02-04T08:15:42;10.07;;;3.63;;
18881;SDS011;9573;50.948;11.600;2023-02-04T08:18:09;11.00;;;3.87;;
18881;SDS011;9573;50.948;11.600;2023-02-04T08:20:36;9.37;;;3.47;;
18881;SDS011;9573;50.948;11.600;2023-02-04T08:23:04;9.17;;;3.20;;
18881;SDS011;9573;50.948;11.600;2023-02-04T08:25:31;8.57;;;2.97;;
18881;SDS011;9573;50.948;11.600;2023-02-04T08:27:58;7.20;;;3.30;;
18881;SDS011;9573;50.948;11.600;2023-02-04T08:30:26;9.50;;;3.57;;
18881;SDS011;9573;50.948;11.600;2023-02-04T08:32:53;7.20;;;2.80;;
18881;SDS011;9573;50.948;11.600;2023-02-04T08:35:20;8.07;;;2.70;;
18881;SDS011;9573;50.948;11.600;2023-02-04T08:37:47;8.37;;;2.77;;
18881;SDS011;9573;50.948;11.600;2023-02-04T08:40:15;8.30;;;2.80;;
18881;SDS011;9573;50.948;11.600;2023-02-04T08:42:43;9.03;;;2.80;;
18881;SDS011;9573;50.948;11.600;2023-02-04T08:45:10;5.03;;;2.73;;
18881;SDS011;9573;50.948;11.600;2023-02-04T08:47:37;9.90;;;2.60;;
18881;SDS011;9573;50.948;11.600;2023-02-04T08:50:04;9.33;;;2.70;;
18881;SDS011;9573;50.948;11.600;2023-02-04T08:52:32;5.30;;;2.27;;
18881;SDS011;9573;50.948;11.600;2023-02-04T08:55:00;5.70;;;2.33;;
18881;SDS011;9573;50.948;11.600;2023-02-04T08:57:29;4.00;;;2.07;;
18881;SDS011;9573;50.948;11.600;2023-02-04T08:59:58;6.70;;;2.13;;
18881;SDS011;9573;50.948;11.600;2023-02-04T09:02:25;7.80;;;2.20;;
18881;SDS011;9573;50.948;11.600;2023-02-04T09:04:52;5.30;;;2.17;;
18881;SDS011;9573;50.948;11.600;2023-02-04T09:07:19;3.53;;;2.20;;
18881;SDS011;9573;50.948;11.600;2023-02-04T09:09:46;5.43;;;1.90;;
18881;SDS011;9573;50.948;11.600;2023-02-04T09:12:13;6.60;;;2.30;;
18881;SDS011;9573;50.948;11.600;2023-02-04T09:14:42;7.90;;;2.17;;
18881;SDS011;9573;50.948;11.600;2023-02-04T09:17:09;7.00;;;2.40;;
18881;SDS011;9573;50.948;11.600;2023-02-04T09:19:36;7.33;;;2.30;;
18881;SDS011;9573;50.948;11.600;2023-02-04T09:22:03;7.63;;;2.37;;
18881;SDS011;9573;50.948;11.600;2023-02-04T09:24:30;6.90;;;2.33;;
18881;SDS011;9573;50.948;11.600;2023-02-04T09:26:57;5.70;;;2.20;;
18881;SDS011;9573;50.948;11.600;2023-02-04T09:29:24;7.23;;;2.47;;
18881;SDS011;9573;50.948;11.600;2023-02-04T09:31:53;3.87;;;2.17;;
18881;SDS011;9573;50.948;11.600;2023-02-04T09:34:20;7.47;;;2.50;;
18881;SDS011;9573;50.948;11.600;2023-02-04T09:36:47;6.80;;;2.50;;
18881;SDS011;9573;50.948;11.600;2023-02-04T09:39:14;8.27;;;2.50;;
18881;SDS011;9573;50.948;11.600;2023-02-04T09:41:41;6.37;;;2.50;;
18881;SDS011;9573;50.948;11.600;2023-02-04T09:44:11;6.83;;;2.50;;
18881;SDS011;9573;50.948;11.600;2023-02-04T09:46:41;6.67;;;2.40;;
18881;SDS011;9573;50.948;11.600;2023-02-04T09:49:14;9.43;;;2.60;;
18881;SDS011;9573;50.948;11.600;2023-02-04T09:51:42;20.77;;;3.10;;
18881;SDS011;9573;50.948;11.600;2023-02-04T09:54:11;10.47;;;2.80;;
18881;SDS011;9573;50.948;11.600;2023-02-04T09:56:40;10.07;;;3.00;;
18881;SDS011;9573;50.948;11.600;2023-02-04T09:59:11;7.90;;;2.30;;
18881;SDS011;9573;50.948;11.600;2023-02-04T10:01:41;7.43;;;2.83;;
18881;SDS011;9573;50.948;11.600;2023-02-04T10:04:09;4.57;;;2.40;;
18881;SDS011;9573;50.948;11.600;2023-02-04T10:06:40;7.07;;;2.23;;
18881;SDS011;9573;50.948;11.600;2023-02-04T10:09:09;5.37;;;2.50;;
18881;SDS011;9573;50.948;11.600;2023-02-04T10:11:37;5.57;;;2.50;;
18881;SDS011;9573;50.948;11.600;2023-02-04T10:14:08;8.70;;;2.63;;
18881;SDS011;9573;50.948;11.600;2023-02-04T10:16:40;8.17;;;2.70;;
18881;SDS011;9573;50.948;11.600;2023-02-04T10:19:11;6.23;;;2.73;;
18881;SDS011;9573;50.948;11.600;2023-02-04T10:21:42;6.37;;;2.60;;
18881;SDS011;9573;50.948;11.600;2023-02-04T10:24:11;6.23;;;2.50;;
18881;SDS011;9573;50.948;11.600;2023-02-04T10:26:41;15.53;;;5.13;;
18881;SDS011;9573;50.948;11.600;2023-02-04T10:29:12;4.90;;;2.50;;
18881;SDS011;9573;50.948;11.600;2023-02-04T10:31:42;4.87;;;2.50;;
18881;SDS011;9573;50.948;11.600;2023-02-04T10:34:12;7.97;;;2.50;;
18881;SDS011;9573;50.948;11.600;2023-02-04T10:36:43;6.07;;;2.57;;
18881;SDS011;9573;50.948;11.600;2023-02-04T10:39:13;3.73;;;2.00;;
18881;SDS011;9573;50.948;11.600;2023-02-04T10:41:44;8.97;;;3.33;;
18881;SDS011;9573;50.948;11.600;2023-02-04T10:44:13;4.33;;;2.20;;
18881;SDS011;9573;50.948;11.600;2023-02-04T10:46:43;6.73;;;2.10;;
18881;SDS011;9573;50.948;11.600;2023-02-04T10:49:20;8.40;;;2.53;;
18881;SDS011;9573;50.948;11.600;2023-02-04T10:51:50;7.17;;;2.00;;
18881;SDS011;9573;50.948;11.600;2023-02-04T10:54:19;33.33;;;13.60;;
18881;SDS011;9573;50.948;11.600;2023-02-04T10:56:57;3.03;;;1.93;;
18881;SDS011;9573;50.948;11.600;2023-02-04T10:59:34;7.40;;;2.30;;
18881;SDS011;9573;50.948;11.600;2023-02-04T11:05:00;5.83;;;2.47;;
18881;SDS011;9573;50.948;11.600;2023-02-04T11:07:30;6.23;;;2.00;;
18881;SDS011;9573;50.948;11.600;2023-02-04T11:09:57;7.30;;;2.40;;
18881;SDS011;9573;50.948;11.600;2023-02-04T11:12:35;8.57;;;1.90;;
18881;SDS011;9573;50.948;11.600;2023-02-04T11:15:05;4.80;;;1.87;;
18881;SDS011;9573;50.948;11.600;2023-02-04T11:17:57;4.63;;;1.70;;
18881;SDS011;9573;50.948;11.600;2023-02-04T11:20:29;7.10;;;2.20;;
18881;SDS011;9573;50.948;11.600;2023-02-04T11:23:13;7.67;;;1.90;;
18881;SDS011;9573;50.948;11.600;2023-02-04T11:26:00;3.57;;;1.97;;
18881;SDS011;9573;50.948;11.600;2023-02-04T11:28:54;5.27;;;1.97;;
18881;SDS011;9573;50.948;11.600;2023-02-04T11:31:40;4.63;;;1.70;;
18881;SDS011;9573;50.948;11.600;2023-02-04T11:37:02;3.20;;;1.60;;
18881;SDS011;9573;50.948;11.600;2023-02-04T11:39:41;7.10;;;1.53;;
18881;SDS011;9573;50.948;11.600;2023-02-04T11:42:15;6.80;;;1.50;;
18881;SDS011;9573;50.948;11.600;2023-02-04T11:44:48;7.23;;;1.67;;
18881;SDS011;9573;50.948;11.600;2023-02-04T11:47:17;2.57;;;1.33;;
18881;SDS011;9573;50.948;11.600;2023-02-04T11:49:44;2.00;;;1.40;;
18881;SDS011;9573;50.948;11.600;2023-02-04T11:52:19;4.70;;;1.40;;
18881;SDS011;9573;50.948;11.600;2023-02-04T11:54:55;6.40;;;1.30;;
18881;SDS011;9573;50.948;11.600;2023-02-04T11:57:24;7.97;;;1.57;;
18881;SDS011;9573;50.948;11.600;2023-02-04T11:59:51;11.77;;;1.83;;
18881;SDS011;9573;50.948;11.600;2023-02-04T12:02:20;3.07;;;1.53;;
18881;SDS011;9573;50.948;11.600;2023-02-04T12:04:51;4.23;;;1.50;;
18881;SDS011;9573;50.948;11.600;2023-02-04T12:07:23;3.87;;;1.30;;
18881;SDS011;9573;50.948;11.600;2023-02-04T12:09:52;2.00;;;1.20;;
18881;SDS011;9573;50.948;11.600;2023-02-04T12:12:22;7.80;;;1.57;;
18881;SDS011;9573;50.948;11.600;2023-02-04T12:14:55;7.57;;;1.80;;
18881;SDS011;9573;50.948;11.600;2023-02-04T12:17:24;3.03;;;1.70;;
18881;SDS011;9573;50.948;11.600;2023-02-04T12:19:51;12.03;;;2.97;;
18881;SDS011;9573;50.948;11.600;2023-02-04T12:22:18;7.00;;;1.53;;
18881;SDS011;9573;50.948;11.600;2023-02-04T12:24:45;6.80;;;1.83;;
18881;SDS011;9573;50.948;11.600;2023-02-04T12:27:14;4.70;;;1.80;;
18881;SDS011;9573;50.948;11.600;2023-02-04T12:29:41;3.77;;;1.53;;
18881;SDS011;9573;50.948;11.600;2023-02-04T12:32:08;3.67;;;1.33;;
18881;SDS011;9573;50.948;11.600;2023-02-04T12:34:35;5.37;;;1.60;;
18881;SDS011;9573;50.948;11.600;2023-02-04T12:37:02;8.27;;;1.80;;
18881;SDS011;9573;50.948;11.600;2023-02-04T12:39:30;5.90;;;1.80;;
18881;SDS011;9573;50.948;11.600;2023-02-04T12:41:57;3.33;;;1.60;;
18881;SDS011;9573;50.948;11.600;2023-02-04T12:44:26;4.97;;;1.70;;
18881;SDS011;9573;50.948;11.600;2023-02-04T12:46:53;9.00;;;1.90;;
18881;SDS011;9573;50.948;11.600;2023-02-04T12:49:20;8.70;;;1.90;;
18881;SDS011;9573;50.948;11.600;2023-02-04T12:51:48;3.50;;;1.60;;
18881;SDS011;9573;50.948;11.600;2023-02-04T12:54:16;4.47;;;1.70;;
18881;SDS011;9573;50.948;11.600;2023-02-04T12:56:43;6.93;;;1.60;;
18881;SDS011;9573;50.948;11.600;2023-02-04T12:59:13;3.90;;;1.67;;
18881;SDS011;9573;50.948;11.600;2023-02-04T13:01:42;5.60;;;1.60;;
18881;SDS011;9573;50.948;11.600;2023-02-04T13:04:09;3.73;;;1.80;;
18881;SDS011;9573;50.948;11.600;2023-02-04T13:06:36;4.67;;;1.67;;
18881;SDS011;9573;50.948;11.600;2023-02-04T13:09:03;6.53;;;2.40;;
18881;SDS011;9573;50.948;11.600;2023-02-04T13:11:30;8.47;;;2.07;;
18881;SDS011;9573;50.948;11.600;2023-02-04T13:13:57;2.67;;;1.70;;
18881;SDS011;9573;50.948;11.600;2023-02-04T13:16:24;3.27;;;1.83;;
18881;SDS011;9573;50.948;11.600;2023-02-04T13:18:53;9.40;;;1.77;;
18881;SDS011;9573;50.948;11.600;2023-02-04T13:21:20;8.87;;;1.20;;
18881;SDS011;9573;50.948;11.600;2023-02-04T13:23:47;7.27;;;1.60;;
18881;SDS011;9573;50.948;11.600;2023-02-04T13:26:14;2.97;;;1.20;;
18881;SDS011;9573;50.948;11.600;2023-02-04T13:28:41;4.93;;;1.53;;
18881;SDS011;9573;50.948;11.600;2023-02-04T13:31:09;2.27;;;1.30;;
18881;SDS011;9573;50.948;11.600;2023-02-04T13:33:36;5.13;;;1.83;;
18881;SDS011;9573;50.948;11.600;2023-02-04T13:36:05;5.80;;;1.93;;
18881;SDS011;9573;50.948;11.600;2023-02-04T13:38:33;6.27;;;1.70;;
18881;SDS011;9573;50.948;11.600;2023-02-04T13:41:01;10.17;;;2.13;;
18881;SDS011;9573;50.948;11.600;2023-02-04T13:43:28;3.70;;;1.80;;
18881;SDS011;9573;50.948;11.600;2023-02-04T13:45:55;4.63;;;1.70;;
18881;SDS011;9573;50.948;11.600;2023-02-04T13:48:22;9.33;;;1.90;;
18881;SDS011;9573;50.948;11.600;2023-02-04T13:50:49;7.57;;;1.93;;
18881;SDS011;9573;50.948;11.600;2023-02-04T13:53:18;6.73;;;1.77;;
18881;SDS011;9573;50.948;11.600;2023-02-04T13:55:45;4.70;;;1.70;;
18881;SDS011;9573;50.948;11.600;2023-02-04T13:58:12;5.03;;;2.07;;
18881;SDS011;9573;50.948;11.600;2023-02-04T14:00:39;4.23;;;1.93;;
18881;SDS011;9573;50.948;11.600;2023-02-04T14:03:06;4.27;;;2.07;;
18881;SDS011;9573;50.948;11.600;2023-02-04T14:05:33;7.30;;;1.60;;
18881;SDS011;9573;50.948;11.600;2023-02-04T14:08:00;5.47;;;2.07;;
18881;SDS011;9573;50.948;11.600;2023-02-04T14:10:29;13.20;;;2.10;;
18881;SDS011;9573;50.948;11.600;2023-02-04T14:12:56;6.07;;;2.37;;
18881;SDS011;9573;50.948;11.600;2023-02-04T14:15:23;7.50;;;2.30;;
18881;SDS011;9573;50.948;11.600;2023-02-04T14:17:50;6.73;;;2.23;;
18881;SDS011;9573;50.948;11.600;2023-02-04T14:20:17;13.03;;;2.50;;
18881;SDS011;9573;50.948;11.600;2023-02-04T14:22:44;5.00;;;1.87;;
18881;SDS011;9573;50.948;11.600;2023-02-04T14:25:11;4.03;;;1.80;;
18881;SDS011;9573;50.948;11.600;2023-02-04T14:27:40;7.70;;;2.10;;
18881;SDS011;9573;50.948;11.600;2023-02-04T14:30:09;5.87;;;2.00;;
18881;SDS011;9573;50.948;11.600;2023-02-04T14:32:43;3.63;;;1.80;;
18881;SDS011;9573;50.948;11.600;2023-02-04T14:35:10;10.60;;;3.20;;
18881;SDS011;9573;50.948;11.600;2023-02-04T14:37:38;4.97;;;1.73;;
18881;SDS011;9573;50.948;11.600;2023-02-04T14:40:05;7.30;;;1.87;;
18881;SDS011;9573;50.948;11.600;2023-02-04T14:42:34;4.73;;;1.70;;
18881;SDS011;9573;50.948;11.600;2023-02-04T14:45:04;7.47;;;1.83;;
18881;SDS011;9573;50.948;11.600;2023-02-04T14:47:32;4.43;;;2.00;;
18881;SDS011;9573;50.948;11.600;2023-02-04T14:49:59;4.00;;;1.60;;
18881;SDS011;9573;50.948;11.600;2023-02-04T14:52:27;3.73;;;1.80;;
18881;SDS011;9573;50.948;11.600;2023-02-04T14:54:54;5.67;;;1.80;;
18881;SDS011;9573;50.948;11.600;2023-02-04T14:57:21;8.00;;;2.10;;